createdAt,value
2022-09-04T00:04:15.081Z,4.50
2022-09-04T00:09:11.116Z,4.75
2022-09-04T00:13:49.552Z,4.78
2022-09-04T00:18:31.883Z,4.90
2022-09-04T00:23:12.216Z,4.20
2022-09-04T00:27:51.435Z,4.80
2022-09-04T00:32:29.933Z,4.27
2022-09-04T00:37:08.472Z,4.88
2022-09-04T00:41:55.927Z,4.63
2022-09-04T00:46:54.063Z,4.07
2022-09-04T00:51:34.652Z,4.80
2022-09-04T00:56:44.273Z,4.97
2022-09-04T01:01:24.379Z,4.90
2022-09-04T01:06:13.592Z,4.73
2022-09-04T01:10:58.960Z,4.70
2022-09-04T01:15:41.229Z,5.65
2022-09-04T01:20:22.620Z,4.90
2022-09-04T01:25:09.717Z,4.75
2022-09-04T01:29:55.199Z,5.07
2022-09-04T01:34:41.071Z,4.60
2022-09-04T01:39:15.198Z,4.83
2022-09-04T01:43:49.733Z,4.60
2022-09-04T01:48:40.890Z,5.07
2022-09-04T01:53:19.739Z,5.53
2022-09-04T01:58:17.748Z,5.00
2022-09-04T02:03:00.307Z,5.07
2022-09-04T02:07:46.708Z,5.00
2022-09-04T02:12:30.267Z,4.90
2022-09-04T02:17:12.209Z,4.88
2022-09-04T02:21:51.838Z,5.13
2022-09-04T02:26:31.796Z,5.17
2022-09-04T02:31:13.701Z,5.30
2022-09-04T02:35:53.825Z,4.88
2022-09-04T02:40:33.530Z,5.30
2022-09-04T02:45:18.794Z,5.00
2022-09-04T02:50:00.580Z,5.30
2022-09-04T02:54:48.562Z,5.23
2022-09-04T02:59:36.212Z,5.38
2022-09-04T03:04:17.315Z,5.50
2022-09-04T03:08:57.144Z,5.50
2022-09-04T03:13:37.517Z,5.43
2022-09-04T03:18:20.899Z,5.68
2022-09-04T03:23:02.933Z,5.93
2022-09-04T03:27:36.989Z,5.67
2022-09-04T03:32:18.955Z,5.60
2022-09-04T03:37:07.803Z,6.00
2022-09-04T03:41:52.056Z,5.87
2022-09-04T03:46:39.107Z,6.05
2022-09-04T03:51:22.783Z,6.05
2022-09-04T03:56:24.631Z,5.15
2022-09-04T04:01:07.609Z,5.83
2022-09-04T04:05:48.279Z,5.72
2022-09-04T04:10:33.717Z,5.75
2022-09-04T04:15:20.360Z,5.93
2022-09-04T04:20:07.195Z,6.25
2022-09-04T04:24:54.966Z,6.60
2022-09-04T04:29:52.869Z,6.87
2022-09-04T04:34:34.783Z,6.43
2022-09-04T04:39:20.375Z,6.25
2022-09-04T04:44:08.238Z,6.90
2022-09-04T04:49:26.240Z,6.23
2022-09-04T04:54:14.533Z,6.90
2022-09-04T04:59:03.011Z,6.50
2022-09-04T05:03:49.459Z,6.90
2022-09-04T05:08:36.754Z,6.55
2022-09-04T05:13:17.692Z,7.07
2022-09-04T05:17:58.987Z,6.33
2022-09-04T05:22:37.692Z,6.57
2022-09-04T05:27:18.611Z,6.38
2022-09-04T05:31:59.595Z,7.00
2022-09-04T05:36:46.863Z,6.90
2022-09-04T05:41:34.707Z,7.05
2022-09-04T05:46:19.378Z,6.85
2022-09-04T05:51:43.985Z,7.37
2022-09-04T05:56:46.667Z,7.03
2022-09-04T06:01:36.030Z,6.88
2022-09-04T06:06:20.223Z,7.10
2022-09-04T06:11:04.671Z,7.28
2022-09-04T06:15:49.894Z,7.78
2022-09-04T06:20:44.692Z,7.10
2022-09-04T06:25:34.748Z,7.17
2022-09-04T06:30:11.371Z,7.80
2022-09-04T06:35:07.529Z,7.22
2022-09-04T06:40:03.948Z,7.27
2022-09-04T06:44:50.645Z,7.60
2022-09-04T06:49:38.005Z,8.10
2022-09-04T06:54:21.203Z,7.43
2022-09-04T06:59:10.650Z,7.18
2022-09-04T07:04:02.825Z,7.03
2022-09-04T07:08:52.144Z,7.28
2022-09-04T07:13:48.668Z,7.50
2022-09-04T07:18:44.386Z,7.22
2022-09-04T07:23:37.779Z,6.93
2022-09-04T07:28:24.308Z,7.00
2022-09-04T07:33:03.927Z,6.78
2022-09-04T07:37:48.286Z,7.00
2022-09-04T07:42:31.001Z,6.80
2022-09-04T07:47:12.658Z,7.00
2022-09-04T07:51:55.013Z,12.73
2022-09-04T07:56:45.447Z,6.05
2022-09-04T08:01:39.585Z,6.70
2022-09-04T08:06:21.157Z,8.15
2022-09-04T08:11:15.509Z,6.78
2022-09-04T08:15:58.651Z,7.20
2022-09-04T08:20:43.038Z,6.18
2022-09-04T08:25:25.189Z,6.35
2022-09-04T08:30:05.785Z,5.67
2022-09-04T08:35:01.239Z,6.07
2022-09-04T08:39:47.551Z,5.50
2022-09-04T08:44:50.150Z,5.47
2022-09-04T08:49:55.267Z,5.10
2022-09-04T08:55:07.448Z,4.70
2022-09-04T09:00:05.008Z,4.63
2022-09-04T09:05:23.630Z,5.40
2022-09-04T09:10:34.620Z,5.03
2022-09-04T09:15:46.723Z,5.45
2022-09-04T09:20:29.159Z,5.53
2022-09-04T09:25:20.631Z,4.70
2022-09-04T09:30:07.876Z,5.03
2022-09-04T09:35:22.176Z,5.20
2022-09-04T09:40:42.768Z,4.80
2022-09-04T09:45:50.719Z,5.20
2022-09-04T09:51:02.720Z,4.70
2022-09-04T09:56:06.946Z,4.50
2022-09-04T10:00:57.222Z,5.10
2022-09-04T10:06:06.434Z,4.50
2022-09-04T10:11:06.379Z,4.20
2022-09-04T10:16:19.640Z,4.35
2022-09-04T10:21:27.360Z,3.92
2022-09-04T10:26:35.798Z,4.38
2022-09-04T10:31:39.764Z,3.70
2022-09-04T10:36:25.779Z,4.38
2022-09-04T10:41:30.176Z,4.15
2022-09-04T10:46:22.627Z,4.90
2022-09-04T10:51:35.319Z,3.95
2022-09-04T10:56:19.096Z,4.85
2022-09-04T11:01:27.440Z,5.10
2022-09-04T11:06:26.317Z,4.20
2022-09-04T11:11:16.623Z,5.03
2022-09-04T11:16:09.516Z,4.60
2022-09-04T11:21:29.261Z,4.87
2022-09-04T11:26:30.734Z,4.63
2022-09-04T11:31:21.896Z,4.18
2022-09-04T11:36:29.699Z,4.80
2022-09-04T11:41:34.132Z,4.28
2022-09-04T11:46:36.091Z,4.05
2022-09-04T11:52:04.107Z,4.33
2022-09-04T11:56:57.791Z,4.57
2022-09-04T12:01:55.022Z,4.30
2022-09-04T13:06:21.813Z,4.63
2022-09-04T13:11:05.648Z,4.20
2022-09-04T13:15:52.691Z,4.27
2022-09-04T13:20:35.781Z,4.45
2022-09-04T13:49:54.308Z,4.13
2022-09-04T13:54:34.980Z,4.00
2022-09-04T13:59:16.234Z,4.60
2022-09-04T14:03:53.264Z,3.87
2022-09-04T14:08:31.432Z,3.88
2022-09-04T14:13:23.334Z,3.95
2022-09-04T14:18:13.532Z,4.17
2022-09-04T14:22:58.093Z,4.00
2022-09-04T14:27:40.550Z,4.57
2022-09-04T14:32:25.564Z,4.07
2022-09-04T14:37:07.947Z,3.80
2022-09-04T14:42:00.261Z,3.80
2022-09-04T14:46:46.463Z,4.30
2022-09-04T14:51:35.351Z,3.80
2022-09-04T14:56:20.510Z,4.30
2022-09-04T15:01:00.678Z,3.90
2022-09-04T15:05:47.240Z,3.90
2022-09-04T15:10:26.026Z,3.90
2022-09-04T15:15:09.704Z,4.30
2022-09-04T15:19:49.413Z,3.88
2022-09-04T15:24:30.897Z,3.93
2022-09-04T15:29:09.535Z,4.10
2022-09-04T15:33:44.950Z,4.10
2022-09-04T15:38:21.684Z,3.60
2022-09-04T15:43:04.602Z,4.07
2022-09-04T15:47:56.855Z,4.10
2022-09-04T15:52:39.921Z,3.70
2022-09-04T15:57:21.176Z,3.90
2022-09-04T16:02:11.700Z,4.00
2022-09-04T16:06:47.998Z,4.00
2022-09-04T16:11:28.448Z,3.80
2022-09-04T16:16:08.398Z,4.20
2022-09-04T16:20:51.310Z,3.97
2022-09-04T16:25:29.589Z,4.20
2022-09-04T16:30:05.909Z,4.30
2022-09-04T16:34:48.052Z,4.20
2022-09-04T16:39:29.009Z,4.43
2022-09-04T16:44:13.875Z,4.25
2022-09-04T16:48:53.734Z,4.60
2022-09-04T16:53:36.777Z,4.43
2022-09-04T16:58:35.789Z,4.00
2022-09-04T17:03:22.560Z,4.53
2022-09-04T17:08:03.740Z,4.20
2022-09-04T17:12:49.776Z,4.50
2022-09-04T17:17:30.907Z,4.30
2022-09-04T17:28:55.312Z,4.45
2022-09-04T17:29:14.872Z,4.27
2022-09-04T17:36:11.113Z,4.25
2022-09-04T17:40:51.159Z,4.53
2022-09-04T17:43:14.878Z,4.15
2022-09-04T17:47:44.121Z,4.13
2022-09-04T17:52:24.877Z,4.00
2022-09-04T17:57:04.725Z,4.15
2022-09-04T18:01:44.417Z,4.40
2022-09-04T18:06:26.235Z,4.28
2022-09-04T18:11:04.372Z,4.20
2022-09-04T18:15:44.739Z,4.37
2022-09-04T18:20:28.795Z,4.78
2022-09-04T18:25:12.936Z,4.40
2022-09-04T18:32:51.752Z,4.32
2022-09-04T18:37:23.983Z,4.73
2022-09-04T18:40:07.223Z,4.60
2022-09-04T18:50:22.788Z,4.60
2022-09-04T18:50:28.626Z,4.50
2022-09-04T18:54:42.122Z,4.22
2022-09-04T18:59:22.347Z,4.82
2022-09-04T19:03:58.521Z,4.53
2022-09-04T19:08:38.312Z,4.30
2022-09-04T19:13:21.757Z,4.63
2022-09-04T19:18:03.159Z,4.00
2022-09-04T19:22:40.946Z,4.40
2022-09-04T19:27:27.765Z,4.70
2022-09-04T19:32:08.922Z,4.57
2022-09-04T19:36:52.960Z,4.40
2022-09-04T19:46:03.405Z,4.63
2022-09-04T19:46:43.508Z,4.70
2022-09-04T19:53:30.487Z,4.40
2022-09-04T19:56:31.206Z,4.30
2022-09-04T20:01:15.621Z,4.40
2022-09-04T20:05:57.812Z,4.10
2022-09-04T20:10:42.741Z,4.23
2022-09-04T20:15:22.277Z,4.10
2022-09-04T20:20:06.662Z,4.25
2022-09-04T20:25:01.807Z,4.40
2022-09-04T20:29:42.649Z,4.30
2022-09-04T20:34:34.804Z,4.60
2022-09-04T20:39:13.318Z,4.00
2022-09-04T20:43:57.919Z,4.30
2022-09-04T20:52:51.602Z,4.00
2022-09-04T20:53:52.413Z,4.50
2022-09-04T21:03:06.137Z,4.00
2022-09-04T21:03:59.168Z,4.50
2022-09-04T21:08:41.872Z,4.22
2022-09-04T21:13:24.215Z,4.30
2022-09-04T21:18:18.239Z,4.57
2022-09-04T21:23:08.796Z,4.10
2022-09-04T21:28:08.973Z,4.50
2022-09-04T21:33:20.755Z,4.50
2022-09-04T21:38:03.144Z,4.50
2022-09-04T21:42:59.713Z,4.20
2022-09-04T21:48:04.915Z,4.57
2022-09-04T21:52:55.955Z,5.13
2022-09-04T22:02:27.319Z,4.50
2022-09-04T22:03:15.139Z,5.00
2022-09-04T22:12:58.710Z,5.15
2022-09-04T22:13:38.175Z,5.35
2022-09-04T22:18:22.496Z,5.13
2022-09-04T22:23:50.860Z,5.22
2022-09-04T22:28:53.451Z,5.50
2022-09-04T22:34:15.343Z,5.40
2022-09-04T22:39:36.499Z,5.67
2022-09-04T22:44:27.062Z,5.78
2022-09-04T22:49:36.405Z,5.60
2022-09-04T22:54:28.762Z,6.00
2022-09-04T22:59:44.311Z,5.07
2022-09-04T23:04:37.055Z,5.93
2022-09-04T23:13:57.902Z,6.00
2022-09-04T23:14:52.134Z,5.95
2022-09-04T23:26:07.338Z,5.65
2022-09-04T23:26:59.345Z,6.30
2022-09-04T23:30:10.348Z,6.07
2022-09-04T23:35:14.191Z,6.43
2022-09-04T23:40:14.971Z,6.07
2022-09-04T23:45:30.632Z,6.70
2022-09-04T23:50:18.180Z,6.97
2022-09-04T23:55:23.223Z,6.53
